ASA869 KLGB-PHNL
Flight info
| Callsign | ASA869 |
|---|---|
| Flight time | N/A |
| Altitude | 32000 |
| Route | VTU AUDIA ADUMM CUNDU BILLO R464 BEKME/N0441F340 R464 BITTA MAGGI3 |
| Aircraft | A21N/M-SDE2E3FGHIRWXY/LB1 |
Departure
| Time | 2026-04-25 16:20 |
|---|---|
| Airport | Long Beach International Airport (KLGB) |
Arrival
| Time | N/A |
|---|---|
| Airport | Daniel K. Inouye International Airport (PHNL) |
| Time | Latitude | Longitude | Altitude | Speed | Heading |
|---|---|---|---|---|---|
| 2026-04-25 16:02 | 33.82099 | -118.14614 | 44 ft | 0 kts | 90° |
| 2026-04-25 16:07 | 33.82099 | -118.14620 | 44 ft | 2 kts | 90° |
| 2026-04-25 16:08 | 33.82099 | -118.14638 | 44 ft | 2 kts | 90° |
| 2026-04-25 16:08 | 33.82099 | -118.14656 | 44 ft | 2 kts | 90° |
| 2026-04-25 16:08 | 33.82099 | -118.14669 | 44 ft | 0 kts | 90° |
| 2026-04-25 16:08 | 33.82097 | -118.14686 | 44 ft | 2 kts | 55° |
| 2026-04-25 16:09 | 33.82085 | -118.14697 | 44 ft | 2 kts | 20° |
| 2026-04-25 16:09 | 33.82077 | -118.14700 | 43 ft | 1 kts | 358° |
| 2026-04-25 16:09 | 33.82070 | -118.14699 | 43 ft | 0 kts | 359° |
| 2026-04-25 16:11 | 33.82071 | -118.14699 | 43 ft | 0 kts | 359° |
| 2026-04-25 16:11 | 33.82093 | -118.14699 | 44 ft | 6 kts | 0° |
| 2026-04-25 16:11 | 33.82141 | -118.14704 | 45 ft | 6 kts | 340° |
| 2026-04-25 16:12 | 33.82159 | -118.14741 | 45 ft | 5 kts | 277° |
| 2026-04-25 16:12 | 33.82152 | -118.14785 | 45 ft | 5 kts | 231° |
| 2026-04-25 16:12 | 33.82116 | -118.14798 | 44 ft | 5 kts | 182° |
| 2026-04-25 16:12 | 33.82090 | -118.14798 | 44 ft | 5 kts | 180° |
| 2026-04-25 16:13 | 33.82039 | -118.14799 | 44 ft | 5 kts | 180° |
| 2026-04-25 16:13 | 33.81996 | -118.14799 | 44 ft | 6 kts | 180° |
| 2026-04-25 16:13 | 33.81936 | -118.14799 | 44 ft | 9 kts | 180° |
| 2026-04-25 16:13 | 33.81860 | -118.14799 | 42 ft | 11 kts | 180° |
| 2026-04-25 16:14 | 33.81776 | -118.14799 | 42 ft | 12 kts | 180° |
| 2026-04-25 16:14 | 33.81693 | -118.14800 | 42 ft | 10 kts | 180° |
| 2026-04-25 16:14 | 33.81626 | -118.14767 | 41 ft | 11 kts | 137° |
| 2026-04-25 16:14 | 33.81567 | -118.14696 | 40 ft | 12 kts | 134° |
| 2026-04-25 16:15 | 33.81502 | -118.14617 | 39 ft | 13 kts | 135° |
| 2026-04-25 16:15 | 33.81430 | -118.14531 | 37 ft | 15 kts | 135° |
| 2026-04-25 16:15 | 33.81354 | -118.14439 | 36 ft | 15 kts | 135° |
| 2026-04-25 16:15 | 33.81275 | -118.14344 | 35 ft | 16 kts | 135° |
| 2026-04-25 16:16 | 33.81193 | -118.14245 | 33 ft | 17 kts | 135° |
| 2026-04-25 16:16 | 33.81108 | -118.14143 | 32 ft | 17 kts | 135° |
| 2026-04-25 16:16 | 33.81027 | -118.14045 | 32 ft | 16 kts | 135° |
| 2026-04-25 16:16 | 33.80946 | -118.13949 | 32 ft | 16 kts | 135° |
| 2026-04-25 16:17 | 33.80874 | -118.13862 | 32 ft | 13 kts | 135° |
| 2026-04-25 16:17 | 33.80815 | -118.13790 | 31 ft | 10 kts | 135° |
| 2026-04-25 16:17 | 33.80776 | -118.13759 | 30 ft | 3 kts | 171° |
| 2026-04-25 16:17 | 33.80768 | -118.13758 | 30 ft | 0 kts | 173° |
| 2026-04-25 16:18 | 33.80756 | -118.13760 | 30 ft | 3 kts | 204° |
| 2026-04-25 16:18 | 33.80747 | -118.13766 | 30 ft | 4 kts | 207° |
| 2026-04-25 16:18 | 33.80702 | -118.13829 | 32 ft | 5 kts | 265° |
| 2026-04-25 16:18 | 33.80727 | -118.13866 | 32 ft | 10 kts | 316° |
| 2026-04-25 16:19 | 33.80968 | -118.14157 | 32 ft | 88 kts | 314° |
| 2026-04-25 16:19 | 33.81569 | -118.14884 | 43 ft | 154 kts | 315° |
| 2026-04-25 16:19 | 33.82437 | -118.15917 | 256 ft | 188 kts | 314° |
| 2026-04-25 16:20 | 33.83516 | -118.18678 | 1616 ft | 196 kts | 256° |
| 2026-04-25 16:20 | 33.82857 | -118.20048 | 2251 ft | 192 kts | 216° |
| 2026-04-25 16:20 | 33.80275 | -118.20289 | 3095 ft | 200 kts | 161° |
| 2026-04-25 16:21 | 33.78911 | -118.19756 | 3417 ft | 214 kts | 161° |
| 2026-04-25 16:21 | 33.77417 | -118.19170 | 3639 ft | 234 kts | 161° |
| 2026-04-25 16:21 | 33.75794 | -118.18705 | 3930 ft | 251 kts | 180° |
| 2026-04-25 16:21 | 33.74078 | -118.19340 | 4302 ft | 265 kts | 217° |
| 2026-04-25 16:22 | 33.72995 | -118.21086 | 4924 ft | 267 kts | 252° |
| 2026-04-25 16:22 | 33.72924 | -118.23261 | 5628 ft | 267 kts | 282° |
| 2026-04-25 16:22 | 33.73400 | -118.25407 | 6350 ft | 266 kts | 283° |
| 2026-04-25 16:22 | 33.73786 | -118.27542 | 7027 ft | 266 kts | 280° |
| 2026-04-25 16:23 | 33.74131 | -118.29747 | 7687 ft | 267 kts | 279° |
| 2026-04-25 16:23 | 33.74444 | -118.31930 | 8308 ft | 268 kts | 278° |
| 2026-04-25 16:23 | 33.74748 | -118.34158 | 8924 ft | 270 kts | 277° |
| 2026-04-25 16:23 | 33.75040 | -118.36369 | 9528 ft | 271 kts | 277° |
| 2026-04-25 16:24 | 33.75328 | -118.38600 | 10107 ft | 272 kts | 277° |
| 2026-04-25 16:24 | 33.75614 | -118.40855 | 10490 ft | 281 kts | 276° |
| 2026-04-25 16:24 | 33.75914 | -118.43250 | 10741 ft | 294 kts | 276° |
| 2026-04-25 16:24 | 33.76225 | -118.45744 | 10988 ft | 307 kts | 276° |
| 2026-04-25 16:25 | 33.76546 | -118.48320 | 11380 ft | 314 kts | 276° |
| 2026-04-25 16:25 | 33.76761 | -118.50035 | 11726 ft | 316 kts | 276° |
| 2026-04-25 16:25 | 33.77195 | -118.53513 | 12464 ft | 317 kts | 276° |
| 2026-04-25 16:25 | 33.77518 | -118.56106 | 12981 ft | 319 kts | 276° |
| 2026-04-25 16:26 | 33.77848 | -118.58768 | 13508 ft | 320 kts | 275° |
| 2026-04-25 16:26 | 33.78172 | -118.61392 | 14013 ft | 322 kts | 275° |
| 2026-04-25 16:26 | 33.78500 | -118.64066 | 14505 ft | 324 kts | 275° |
| 2026-04-25 16:26 | 33.78827 | -118.66730 | 14987 ft | 326 kts | 274° |
| 2026-04-25 16:27 | 33.79159 | -118.69443 | 15480 ft | 327 kts | 275° |
| 2026-04-25 16:27 | 33.79484 | -118.72121 | 15943 ft | 330 kts | 274° |
| 2026-04-25 16:27 | 33.79820 | -118.74880 | 16367 ft | 332 kts | 275° |
| 2026-04-25 16:27 | 33.80153 | -118.77599 | 16819 ft | 334 kts | 275° |
| 2026-04-25 16:28 | 33.80489 | -118.80363 | 17265 ft | 336 kts | 275° |
| 2026-04-25 16:28 | 33.80830 | -118.83170 | 17641 ft | 339 kts | 274° |
| 2026-04-25 16:28 | 33.81169 | -118.85970 | 18008 ft | 341 kts | 275° |
| 2026-04-25 16:28 | 33.81509 | -118.88792 | 18434 ft | 342 kts | 274° |
| 2026-04-25 16:29 | 33.81852 | -118.91614 | 18854 ft | 343 kts | 274° |
| 2026-04-25 16:29 | 33.82194 | -118.94460 | 19239 ft | 345 kts | 274° |
| 2026-04-25 16:29 | 33.82535 | -118.97295 | 19603 ft | 347 kts | 274° |
| 2026-04-25 16:29 | 33.82880 | -119.00169 | 19968 ft | 349 kts | 274° |
| 2026-04-25 16:30 | 33.83229 | -119.03084 | 20339 ft | 351 kts | 274° |
| 2026-04-25 16:30 | 33.83573 | -119.05960 | 20702 ft | 353 kts | 274° |
| 2026-04-25 16:30 | 33.83922 | -119.08889 | 21073 ft | 354 kts | 274° |
| 2026-04-25 16:30 | 33.84268 | -119.11798 | 21407 ft | 355 kts | 274° |
| 2026-04-25 16:31 | 33.84618 | -119.14754 | 21732 ft | 357 kts | 274° |
| 2026-04-25 16:31 | 33.84971 | -119.17734 | 22065 ft | 359 kts | 274° |
| 2026-04-25 16:31 | 33.85323 | -119.20692 | 22389 ft | 360 kts | 274° |
| 2026-04-25 16:31 | 33.85675 | -119.23677 | 22708 ft | 362 kts | 274° |
| 2026-04-25 16:32 | 33.86031 | -119.26693 | 23031 ft | 363 kts | 274° |
| 2026-04-25 16:32 | 33.86381 | -119.29684 | 23313 ft | 365 kts | 274° |
| 2026-04-25 16:32 | 33.86737 | -119.32721 | 23607 ft | 367 kts | 274° |
| 2026-04-25 16:32 | 33.87094 | -119.35776 | 23918 ft | 368 kts | 273° |
| 2026-04-25 16:33 | 33.87447 | -119.38799 | 24228 ft | 369 kts | 274° |
| 2026-04-25 16:33 | 33.87808 | -119.41892 | 24520 ft | 370 kts | 273° |
| 2026-04-25 16:33 | 33.88160 | -119.44926 | 24810 ft | 372 kts | 274° |
| 2026-04-25 16:33 | 33.88520 | -119.48035 | 25094 ft | 373 kts | 273° |
| 2026-04-25 16:34 | 33.88872 | -119.51086 | 25377 ft | 374 kts | 274° |
| 2026-04-25 16:34 | 33.89231 | -119.54195 | 25641 ft | 376 kts | 274° |
| 2026-04-25 16:34 | 33.89590 | -119.57305 | 25869 ft | 378 kts | 273° |
| 2026-04-25 16:34 | 33.89949 | -119.60428 | 26111 ft | 379 kts | 274° |
| 2026-04-25 16:35 | 33.90312 | -119.63599 | 26372 ft | 380 kts | 274° |
| 2026-04-25 16:35 | 33.90672 | -119.66744 | 26635 ft | 381 kts | 273° |
| 2026-04-25 16:35 | 33.91032 | -119.69891 | 26872 ft | 383 kts | 272° |
| 2026-04-25 16:35 | 33.91392 | -119.73062 | 27127 ft | 384 kts | 272° |
| 2026-04-25 16:36 | 33.91754 | -119.76242 | 27367 ft | 385 kts | 273° |
| 2026-04-25 16:36 | 33.91874 | -119.77301 | 27440 ft | 386 kts | 273° |
| 2026-04-25 16:36 | 33.92479 | -119.82666 | 27811 ft | 388 kts | 273° |
| 2026-04-25 16:36 | 33.92842 | -119.85879 | 28022 ft | 390 kts | 273° |
| 2026-04-25 16:37 | 33.93207 | -119.89122 | 28234 ft | 392 kts | 273° |
| 2026-04-25 16:37 | 33.93570 | -119.92351 | 28469 ft | 393 kts | 273° |
| 2026-04-25 16:37 | 33.93937 | -119.95613 | 28690 ft | 394 kts | 273° |
| 2026-04-25 16:37 | 33.94305 | -119.98899 | 28901 ft | 395 kts | 273° |
| 2026-04-25 16:38 | 33.94672 | -120.02183 | 29093 ft | 397 kts | 273° |
| 2026-04-25 16:38 | 33.95033 | -120.05431 | 29288 ft | 398 kts | 272° |
| 2026-04-25 16:38 | 33.95403 | -120.08764 | 29496 ft | 399 kts | 272° |
| 2026-04-25 16:38 | 33.95766 | -120.12045 | 29692 ft | 400 kts | 272° |
| 2026-04-25 16:39 | 33.96131 | -120.15356 | 29934 ft | 400 kts | 273° |
| 2026-04-25 16:39 | 33.96498 | -120.18687 | 30222 ft | 398 kts | 272° |
| 2026-04-25 16:39 | 33.96860 | -120.21977 | 30455 ft | 398 kts | 272° |
| 2026-04-25 16:39 | 33.97221 | -120.25274 | 30658 ft | 398 kts | 272° |
| 2026-04-25 16:40 | 33.97581 | -120.28579 | 30837 ft | 399 kts | 272° |
| 2026-04-25 16:40 | 33.97942 | -120.31891 | 31009 ft | 400 kts | 272° |
| 2026-04-25 16:40 | 33.98300 | -120.35200 | 31183 ft | 401 kts | 272° |
| 2026-04-25 16:40 | 33.98662 | -120.38544 | 31373 ft | 401 kts | 272° |
| 2026-04-25 16:41 | 33.99020 | -120.41847 | 31542 ft | 402 kts | 272° |
| 2026-04-25 16:41 | 33.99262 | -120.44094 | 31655 ft | 402 kts | 272° |
| 2026-04-25 16:41 | 34.00098 | -120.51874 | 31954 ft | 404 kts | 272° |
| 2026-04-25 16:42 | 34.00814 | -120.58574 | 31963 ft | 404 kts | 272° |
| 2026-04-25 16:42 | 34.01524 | -120.65234 | 31965 ft | 404 kts | 272° |
| 2026-04-25 16:43 | 34.02237 | -120.71971 | 31962 ft | 404 kts | 271° |
| 2026-04-25 16:43 | 34.02939 | -120.78657 | 31962 ft | 403 kts | 271° |
| 2026-04-25 16:44 | 34.03637 | -120.85331 | 31971 ft | 403 kts | 271° |
| 2026-04-25 16:44 | 34.04336 | -120.92029 | 31963 ft | 404 kts | 271° |
| 2026-04-25 16:45 | 34.05025 | -120.98714 | 31971 ft | 404 kts | 272° |
| 2026-04-25 16:45 | 34.05717 | -121.05440 | 31969 ft | 404 kts | 272° |
| 2026-04-25 16:46 | 34.06404 | -121.12138 | 31975 ft | 406 kts | 271° |
| 2026-04-25 16:46 | 34.06862 | -121.16634 | 31976 ft | 405 kts | 271° |
| 2026-04-25 16:47 | 34.07774 | -121.25626 | 31977 ft | 406 kts | 271° |
| 2026-04-25 16:47 | 34.08449 | -121.32333 | 31974 ft | 407 kts | 271° |
| 2026-04-25 16:48 | 34.09127 | -121.39098 | 31973 ft | 407 kts | 271° |
| 2026-04-25 16:48 | 34.09804 | -121.45884 | 31975 ft | 408 kts | 271° |
| 2026-04-25 16:49 | 34.10472 | -121.52635 | 31975 ft | 409 kts | 271° |
| 2026-04-25 16:49 | 34.11143 | -121.59445 | 31973 ft | 409 kts | 271° |
| 2026-04-25 16:50 | 34.11806 | -121.66228 | 31975 ft | 408 kts | 271° |
| 2026-04-25 16:50 | 34.12466 | -121.73002 | 31978 ft | 408 kts | 270° |
| 2026-04-25 16:51 | 34.13123 | -121.79785 | 31976 ft | 409 kts | 270° |
| 2026-04-25 16:51 | 34.13670 | -121.85493 | 31977 ft | 409 kts | 270° |
| 2026-04-25 16:52 | 34.14428 | -121.93411 | 31977 ft | 410 kts | 270° |
| 2026-04-25 16:52 | 34.15078 | -122.00246 | 31974 ft | 410 kts | 270° |
| 2026-04-25 16:53 | 34.16042 | -122.10476 | 31970 ft | 411 kts | 270° |
| 2026-04-25 16:54 | 34.16685 | -122.17334 | 31974 ft | 411 kts | 270° |
| 2026-04-25 16:54 | 34.17323 | -122.24175 | 31969 ft | 412 kts | 270° |
| 2026-04-25 16:55 | 34.17955 | -122.31009 | 31973 ft | 412 kts | 270° |
| 2026-04-25 16:55 | 34.18584 | -122.37858 | 31975 ft | 413 kts | 270° |
| 2026-04-25 16:56 | 34.19211 | -122.44716 | 31971 ft | 412 kts | 270° |
| 2026-04-25 16:56 | 34.19836 | -122.51592 | 31970 ft | 411 kts | 270° |
| 2026-04-25 16:57 | 34.20450 | -122.58407 | 31972 ft | 411 kts | 270° |
| 2026-04-25 16:57 | 34.21067 | -122.65293 | 31970 ft | 414 kts | 270° |
| 2026-04-25 16:58 | 34.21679 | -122.72173 | 31970 ft | 413 kts | 270° |
| 2026-04-25 16:58 | 34.22291 | -122.79076 | 31971 ft | 413 kts | 270° |
| 2026-04-25 16:59 | 34.22895 | -122.85933 | 31972 ft | 413 kts | 270° |
| 2026-04-25 16:59 | 34.23497 | -122.92828 | 31967 ft | 414 kts | 270° |
| 2026-04-25 17:00 | 34.24096 | -122.99738 | 31971 ft | 413 kts | 269° |
| 2026-04-25 17:00 | 34.24633 | -123.06603 | 31970 ft | 412 kts | 267° |
| 2026-04-25 17:01 | 34.24680 | -123.13486 | 31967 ft | 408 kts | 262° |
| 2026-04-25 17:01 | 34.24384 | -123.20313 | 31969 ft | 407 kts | 262° |
| 2026-04-25 17:02 | 34.24082 | -123.27099 | 31964 ft | 408 kts | 261° |
| 2026-04-25 17:02 | 34.23770 | -123.33917 | 31974 ft | 407 kts | 262° |
| 2026-04-25 17:03 | 34.23455 | -123.40745 | 31970 ft | 409 kts | 262° |
| 2026-04-25 17:03 | 34.23135 | -123.47615 | 31978 ft | 410 kts | 262° |
| 2026-04-25 17:04 | 34.22811 | -123.54473 | 31974 ft | 410 kts | 262° |
| 2026-04-25 17:04 | 34.22485 | -123.61289 | 31978 ft | 411 kts | 262° |
| 2026-04-25 17:05 | 34.22152 | -123.68166 | 31980 ft | 410 kts | 261° |
| 2026-04-25 17:05 | 34.21646 | -123.78467 | 31984 ft | 412 kts | 261° |
| 2026-04-25 17:06 | 34.21301 | -123.85398 | 31983 ft | 413 kts | 261° |
| 2026-04-25 17:06 | 34.20955 | -123.92284 | 31978 ft | 412 kts | 261° |
| 2026-04-25 17:07 | 34.20605 | -123.99189 | 31982 ft | 412 kts | 261° |
| 2026-04-25 17:07 | 34.20250 | -124.06049 | 31983 ft | 413 kts | 261° |
| 2026-04-25 17:08 | 34.19893 | -124.12956 | 31986 ft | 413 kts | 261° |
| 2026-04-25 17:08 | 34.19527 | -124.19888 | 31990 ft | 415 kts | 261° |
| 2026-04-25 17:09 | 34.19158 | -124.26826 | 31992 ft | 416 kts | 261° |
| 2026-04-25 17:09 | 34.18786 | -124.33764 | 31983 ft | 416 kts | 262° |
| 2026-04-25 17:10 | 34.18407 | -124.40726 | 31992 ft | 417 kts | 262° |
| 2026-04-25 17:10 | 34.18026 | -124.47710 | 31989 ft | 418 kts | 262° |
| 2026-04-25 17:11 | 34.17639 | -124.54662 | 32000 ft | 419 kts | 262° |
| 2026-04-25 17:11 | 34.17247 | -124.61652 | 31991 ft | 419 kts | 262° |
| 2026-04-25 17:12 | 34.16848 | -124.68671 | 31989 ft | 420 kts | 262° |
| 2026-04-25 17:12 | 34.16446 | -124.75722 | 31986 ft | 421 kts | 262° |
| 2026-04-25 17:13 | 34.16108 | -124.81570 | 31994 ft | 422 kts | 262° |
| 2026-04-25 17:13 | 34.15629 | -124.89803 | 31994 ft | 424 kts | 262° |
| 2026-04-25 17:14 | 34.15215 | -124.96864 | 31982 ft | 423 kts | 262° |
| 2026-04-25 17:14 | 34.14794 | -125.03948 | 31988 ft | 424 kts | 262° |
| 2026-04-25 17:15 | 34.14369 | -125.11018 | 31997 ft | 425 kts | 262° |
| 2026-04-25 17:15 | 34.13938 | -125.18136 | 31991 ft | 424 kts | 262° |
| 2026-04-25 17:16 | 34.13504 | -125.25205 | 32002 ft | 425 kts | 262° |
| 2026-04-25 17:16 | 34.13067 | -125.32287 | 31999 ft | 426 kts | 262° |
| 2026-04-25 17:17 | 34.12622 | -125.39404 | 31997 ft | 426 kts | 263° |
| 2026-04-25 17:17 | 34.12175 | -125.46515 | 31997 ft | 427 kts | 263° |
| 2026-04-25 17:18 | 34.11720 | -125.53677 | 32052 ft | 429 kts | 263° |
| 2026-04-25 17:18 | 34.11494 | -125.57201 | 32466 ft | 421 kts | 263° |
| 2026-04-25 17:18 | 34.11273 | -125.60701 | 32990 ft | 412 kts | 263° |
| 2026-04-25 17:19 | 34.11053 | -125.64126 | 33264 ft | 409 kts | 263° |
| 2026-04-25 17:19 | 34.10833 | -125.67506 | 33401 ft | 409 kts | 263° |
| 2026-04-25 17:19 | 34.10609 | -125.70931 | 33541 ft | 410 kts | 263° |
| 2026-04-25 17:19 | 34.10384 | -125.74352 | 33700 ft | 410 kts | 263° |
| 2026-04-25 17:20 | 34.10159 | -125.77789 | 33856 ft | 410 kts | 263° |
| 2026-04-25 17:20 | 34.09934 | -125.81206 | 33989 ft | 410 kts | 263° |
| 2026-04-25 17:20 | 34.09481 | -125.88036 | 34002 ft | 411 kts | 263° |
| 2026-04-25 17:21 | 34.09022 | -125.94887 | 34005 ft | 411 kts | 263° |
| 2026-04-25 17:21 | 34.08557 | -126.01767 | 34008 ft | 412 kts | 263° |